Time;durP1;ratioP1;P1;durP2;ratioP2;P2;SDS_P1;SDS_P2;PMS_P1;PMS_P2;Temp;Humidity;BMP_temperature;BMP_pressure;BME280_temperature;BME280_humidity;BME280_pressure;Samples;Min_cycle;Max_cycle;Signal;HPM_P1;HPM_P2
2022/01/25 00:24:21;;;;;;;11.65;9.25;;;;;;;;;;5037859;28;20071;-75
2022/01/25 00:30:25;;;;;;;10.60;7.30;;;;;;;;;;4990716;28;20086;-74
2022/01/25 00:32:37;;;;;;;11.02;8.50;;;;;;;;;;5039309;28;20128;-75
2022/01/25 00:35:04;;;;;;;12.63;10.00;;;;;;;;;;5039522;28;20548;-75
2022/01/25 00:37:32;;;;;;;12.23;9.43;;;;;;;;;;5030350;28;20418;-75
2022/01/25 00:39:59;;;;;;;10.77;8.50;;;;;;;;;;5028629;28;20173;-75
2022/01/25 00:42:26;;;;;;;11.85;8.63;;;;;;;;;;5039471;28;20054;-75
2022/01/25 00:44:55;;;;;;;11.48;9.23;;;;;;;;;;5038333;28;20090;-75
2022/01/25 00:47:24;;;;;;;11.85;9.70;;;;;;;;;;5022680;28;20048;-75
2022/01/25 00:49:53;;;;;;;7.93;6.88;;;;;;;;;;5002507;28;20436;-75
2022/01/25 00:53:54;;;;;;;9.80;8.25;;;;;;;;;;5038038;28;20528;-75
2022/01/25 00:55:12;;;;;;;12.93;8.50;;;;;;;;;;5039654;28;20132;-75
2022/01/25 00:57:40;;;;;;;10.73;9.43;;;;;;;;;;5039158;28;20395;-74
2022/01/25 01:00:08;;;;;;;16.15;10.43;;;;;;;;;;5040744;28;20543;-75
2022/01/25 01:02:36;;;;;;;12.57;10.27;;;;;;;;;;5021697;28;20065;-75
2022/01/25 01:05:04;;;;;;;11.35;8.90;;;;;;;;;;5022229;28;20703;-74
2022/01/25 01:07:31;;;;;;;10.93;8.70;;;;;;;;;;5037988;28;20106;-75
2022/01/25 01:10:00;;;;;;;11.05;9.27;;;;;;;;;;5038833;28;20689;-76
2022/01/25 01:15:31;;;;;;;9.65;7.68;;;;;;;;;;5036048;28;20045;-76
2022/01/25 01:29:33;;;;;;;27.88;12.77;;;;;;;;;;5011977;28;20050;-74
2022/01/25 01:32:18;;;;;;;22.20;12.95;;;;;;;;;;5017130;28;20045;-75
2022/01/25 01:37:58;;;;;;;27.92;10.38;;;;;;;;;;5017857;28;20129;-75
2022/01/25 01:48:16;;;;;;;60.80;11.10;;;;;;;;;;4917979;29;20107;-74
2022/01/25 01:50:43;;;;;;;47.47;10.95;;;;;;;;;;4916916;29;20483;-75
2022/01/25 01:53:11;;;;;;;52.83;10.15;;;;;;;;;;4917944;29;20059;-75
2022/01/25 01:55:38;;;;;;;22.00;7.72;;;;;;;;;;4920930;29;20623;-75
2022/01/25 01:58:06;;;;;;;24.10;10.13;;;;;;;;;;4922350;29;20048;-75
2022/01/25 02:00:41;;;;;;;35.90;9.68;;;;;;;;;;4919313;29;20155;-75
2022/01/25 02:03:09;;;;;;;42.05;10.10;;;;;;;;;;4922016;29;20048;-74
2022/01/25 02:05:37;;;;;;;42.45;8.95;;;;;;;;;;4921138;29;20059;-74
2022/01/25 02:08:05;;;;;;;30.65;9.98;;;;;;;;;;4920683;29;20059;-75
2022/01/25 02:10:34;;;;;;;28.52;9.48;;;;;;;;;;4901775;29;20111;-74
2022/01/25 02:13:04;;;;;;;11.80;7.25;;;;;;;;;;4918208;29;20146;-75
2022/01/25 02:15:31;;;;;;;16.23;7.32;;;;;;;;;;4902438;29;20163;-75
2022/01/25 02:23:31;;;;;;;47.17;9.50;;;;;;;;;;4905123;29;20040;-75
2022/01/25 02:26:00;;;;;;;53.65;9.55;;;;;;;;;;4965761;28;20468;-74
2022/01/25 02:28:32;;;;;;;11.23;7.03;;;;;;;;;;4946407;28;20074;-75
2022/01/25 02:31:00;;;;;;;26.42;8.45;;;;;;;;;;4977373;28;20050;-75
2022/01/25 02:33:27;;;;;;;34.45;9.05;;;;;;;;;;4974798;28;20810;-75
2022/01/25 02:35:55;;;;;;;18.75;6.97;;;;;;;;;;4979634;28;20048;-75
2022/01/25 02:38:28;;;;;;;23.10;9.02;;;;;;;;;;4960498;28;20502;-75
2022/01/25 02:40:57;;;;;;;24.20;8.55;;;;;;;;;;4974773;28;20534;-75
2022/01/25 02:43:25;;;;;;;15.25;7.30;;;;;;;;;;4961782;28;20705;-75
2022/01/25 02:48:52;;;;;;;33.90;8.80;;;;;;;;;;4977037;28;20120;-75
2022/01/25 02:51:19;;;;;;;;;;;;;;;;;;4975740;28;20142;-75
2022/01/25 02:53:47;;;;;;;25.65;8.45;;;;;;;;;;5021188;28;19963;-76
2022/01/25 02:56:15;;;;;;;16.52;7.85;;;;;;;;;;5038875;28;20473;-75
2022/01/25 02:58:43;;;;;;;14.82;9.15;;;;;;;;;;5035963;28;20433;-74
2022/01/25 03:01:10;;;;;;;21.55;9.63;;;;;;;;;;5036084;28;20041;-75
2022/01/25 03:03:38;;;;;;;13.95;8.25;;;;;;;;;;5018618;28;20041;-74
2022/01/25 03:06:06;;;;;;;11.88;8.20;;;;;;;;;;5036416;28;20124;-74
2022/01/25 03:08:33;;;;;;;11.05;8.68;;;;;;;;;;5037939;28;20412;-74
2022/01/25 03:11:20;;;;;;;17.52;12.27;;;;;;;;;;5035468;28;20163;-75
2022/01/25 03:14:10;;;;;;;11.45;8.13;;;;;;;;;;5017936;28;20121;-75
2022/01/25 03:16:45;;;;;;;10.07;7.80;;;;;;;;;;5016544;28;20053;-74
2022/01/25 03:22:06;;;;;;;12.35;9.00;;;;;;;;;;5021233;28;20455;-75
2022/01/25 03:24:34;;;;;;;10.40;7.28;;;;;;;;;;5039283;28;20041;-76
2022/01/25 03:27:02;;;;;;;9.93;7.20;;;;;;;;;;5038089;28;20051;-75
2022/01/25 03:29:29;;;;;;;10.85;7.88;;;;;;;;;;5033056;28;20137;-75
2022/01/25 03:31:57;;;;;;;11.30;8.95;;;;;;;;;;5035402;28;20159;-75
2022/01/25 03:34:24;;;;;;;10.73;8.40;;;;;;;;;;5035553;28;20119;-75
2022/01/25 03:36:51;;;;;;;15.13;11.07;;;;;;;;;;5016134;28;20061;-75
2022/01/25 03:39:22;;;;;;;10.75;7.90;;;;;;;;;;5018034;28;20685;-75
2022/01/25 03:41:50;;;;;;;9.18;7.50;;;;;;;;;;5035983;28;20586;-75
2022/01/25 03:44:18;;;;;;;8.48;6.68;;;;;;;;;;5037178;28;20075;-75
2022/01/25 03:52:03;;;;;;;9.90;8.25;;;;;;;;;;5034481;28;20460;-75
2022/01/25 03:54:31;;;;;;;9.82;7.93;;;;;;;;;;5016711;28;20045;-75
2022/01/25 03:56:59;;;;;;;11.13;9.35;;;;;;;;;;5034814;28;20473;-75
2022/01/25 03:59:28;;;;;;;11.32;8.57;;;;;;;;;;5034707;28;20823;-75
2022/01/25 04:01:56;;;;;;;15.95;11.68;;;;;;;;;;5033309;28;20123;-76
2022/01/25 04:04:26;;;;;;;19.95;12.38;;;;;;;;;;5016785;28;20408;-75
2022/01/25 04:06:53;;;;;;;16.40;11.30;;;;;;;;;;5017735;28;20033;-75
2022/01/25 04:09:21;;;;;;;15.88;10.50;;;;;;;;;;5018036;28;20051;-75
2022/01/25 04:11:49;;;;;;;16.77;13.00;;;;;;;;;;5033357;28;21076;-75
2022/01/25 04:14:17;;;;;;;14.50;10.73;;;;;;;;;;5034073;28;20464;-76
2022/01/25 04:19:27;;;;;;;18.95;13.52;;;;;;;;;;5033636;28;20063;-75
2022/01/25 04:27:31;;;;;;;20.98;14.90;;;;;;;;;;5034665;28;20111;-75
2022/01/25 04:29:58;;;;;;;20.17;15.02;;;;;;;;;;5032644;28;20055;-75
2022/01/25 04:32:35;;;;;;;16.35;12.32;;;;;;;;;;5031313;28;20386;-75
2022/01/25 04:49:14;;;;;;;17.88;13.45;;;;;;;;;;5021483;28;20080;-75
2022/01/25 04:57:16;;;;;;;16.40;12.80;;;;;;;;;;5029703;28;20139;-75
2022/01/25 05:05:30;;;;;;;16.70;13.20;;;;;;;;;;5037571;28;20496;-75
2022/01/25 05:08:05;;;;;;;20.33;14.63;;;;;;;;;;5022445;28;20041;-75
2022/01/25 05:10:45;;;;;;;17.50;13.18;;;;;;;;;;5007391;28;20234;-75
2022/01/25 05:13:25;;;;;;;16.45;13.15;;;;;;;;;;5006791;28;20088;-74
2022/01/25 05:16:14;;;;;;;16.08;12.75;;;;;;;;;;5006316;28;20045;-74
2022/01/25 05:18:45;;;;;;;17.77;12.20;;;;;;;;;;5004617;28;20038;-75
2022/01/25 05:23:59;;;;;;;13.98;11.50;;;;;;;;;;5006675;28;21760;-75
2022/01/25 05:26:27;;;;;;;17.30;13.38;;;;;;;;;;5001296;28;20486;-75
2022/01/25 05:28:58;;;;;;;14.68;11.30;;;;;;;;;;5006452;28;20492;-75
2022/01/25 05:31:26;;;;;;;15.70;10.98;;;;;;;;;;5008591;28;20085;-75
2022/01/25 05:33:53;;;;;;;16.38;13.18;;;;;;;;;;5006778;28;20049;-74
2022/01/25 05:36:24;;;;;;;18.27;11.85;;;;;;;;;;4980842;28;20226;-76
2022/01/25 05:38:52;;;;;;;16.58;10.30;;;;;;;;;;4999647;28;20054;-75
2022/01/25 05:41:19;;;;;;;14.45;11.82;;;;;;;;;;5006387;28;20052;-75
2022/01/25 05:46:20;;;;;;;19.58;14.23;;;;;;;;;;5015591;28;20045;-75
2022/01/25 05:48:47;;;;;;;18.35;13.60;;;;;;;;;;5049414;28;20127;-75
2022/01/25 05:51:15;;;;;;;17.65;13.02;;;;;;;;;;5038131;28;20072;-75
2022/01/25 05:53:42;;;;;;;22.00;16.23;;;;;;;;;;5039373;28;20041;-75
2022/01/25 05:56:10;;;;;;;20.88;15.63;;;;;;;;;;5042925;28;20040;-75
2022/01/25 05:58:37;;;;;;;19.83;13.57;;;;;;;;;;5017390;28;20124;-76
2022/01/25 06:01:04;;;;;;;19.90;14.30;;;;;;;;;;5046303;28;20095;-73
2022/01/25 06:03:32;;;;;;;18.52;14.18;;;;;;;;;;5052046;28;20548;-73
2022/01/25 06:06:00;;;;;;;19.15;13.25;;;;;;;;;;5047301;28;20041;-74
2022/01/25 06:08:27;;;;;;;22.73;16.25;;;;;;;;;;5042142;28;20111;-74
2022/01/25 06:10:56;;;;;;;19.65;12.60;;;;;;;;;;5052147;28;20461;-75
2022/01/25 06:13:23;;;;;;;24.52;17.13;;;;;;;;;;5029782;28;20053;-76
2022/01/25 06:15:51;;;;;;;21.10;15.38;;;;;;;;;;5010705;28;20076;-75
2022/01/25 06:18:18;;;;;;;22.73;16.55;;;;;;;;;;5050348;28;20041;-75
2022/01/25 06:20:46;;;;;;;22.88;16.17;;;;;;;;;;5005241;28;20121;-76
2022/01/25 06:23:13;;;;;;;24.08;16.48;;;;;;;;;;5005690;28;20100;-75
2022/01/25 06:25:41;;;;;;;20.30;14.88;;;;;;;;;;5004910;28;20046;-75
2022/01/25 06:28:08;;;;;;;23.88;17.75;;;;;;;;;;5006006;28;20518;-75
2022/01/25 06:30:36;;;;;;;23.17;16.42;;;;;;;;;;5006518;28;20054;-76
2022/01/25 06:33:08;;;;;;;22.30;16.02;;;;;;;;;;5006525;28;20612;-75
2022/01/25 06:35:36;;;;;;;18.52;14.18;;;;;;;;;;4989224;28;20085;-75
2022/01/25 06:38:03;;;;;;;21.17;15.35;;;;;;;;;;5011069;28;20492;-76
2022/01/25 06:40:31;;;;;;;21.40;14.88;;;;;;;;;;4986592;28;20056;-75
2022/01/25 06:42:59;;;;;;;25.17;17.27;;;;;;;;;;5005614;28;20085;-76
2022/01/25 06:45:27;;;;;;;23.00;16.90;;;;;;;;;;5008409;28;20042;-75
2022/01/25 06:47:55;;;;;;;20.13;14.10;;;;;;;;;;5007811;28;20399;-75
2022/01/25 06:50:23;;;;;;;22.92;15.70;;;;;;;;;;4996658;28;20044;-76
2022/01/25 06:52:52;;;;;;;19.63;15.00;;;;;;;;;;5037512;28;20079;-75
2022/01/25 06:55:37;;;;;;;21.48;15.70;;;;;;;;;;5054797;28;20558;-76
2022/01/25 06:58:04;;;;;;;20.33;14.80;;;;;;;;;;5032384;28;20029;-76
2022/01/25 07:00:32;;;;;;;22.58;16.52;;;;;;;;;;5055117;28;20090;-76
2022/01/25 07:02:59;;;;;;;20.70;15.50;;;;;;;;;;5050498;28;20045;-76
2022/01/25 07:05:27;;;;;;;20.33;13.90;;;;;;;;;;5016375;28;20057;-76
2022/01/25 07:07:54;;;;;;;20.50;14.63;;;;;;;;;;5070497;28;20127;-75
2022/01/25 07:10:22;;;;;;;23.60;17.05;;;;;;;;;;5050894;28;20196;-75
2022/01/25 07:12:50;;;;;;;18.83;14.18;;;;;;;;;;5040438;28;20041;-75
2022/01/25 07:15:17;;;;;;;19.02;14.23;;;;;;;;;;5034993;28;20068;-75
2022/01/25 07:17:45;;;;;;;23.90;17.65;;;;;;;;;;5051908;28;20049;-74
2022/01/25 07:20:12;;;;;;;19.50;14.35;;;;;;;;;;5032928;28;20037;-75
2022/01/25 07:22:40;;;;;;;19.27;15.07;;;;;;;;;;5046680;28;20044;-75
2022/01/25 07:25:09;;;;;;;21.65;17.08;;;;;;;;;;5049527;28;20044;-76
2022/01/25 07:27:37;;;;;;;20.70;15.80;;;;;;;;;;5026314;28;20072;-74
2022/01/25 07:30:05;;;;;;;20.60;15.55;;;;;;;;;;5033380;28;20049;-74
2022/01/25 07:32:32;;;;;;;22.70;16.00;;;;;;;;;;5051475;28;20094;-73
2022/01/25 07:35:04;;;;;;;18.90;14.60;;;;;;;;;;5049852;28;20051;-75
2022/01/25 07:37:33;;;;;;;21.00;15.73;;;;;;;;;;5032787;28;20041;-74
2022/01/25 07:40:02;;;;;;;17.67;12.70;;;;;;;;;;5051270;28;20041;-76
2022/01/25 07:42:36;;;;;;;19.70;15.05;;;;;;;;;;5033366;28;20098;-76
2022/01/25 07:45:21;;;;;;;22.70;17.15;;;;;;;;;;5042569;28;20045;-76
2022/01/25 07:48:00;;;;;;;19.52;15.07;;;;;;;;;;5011372;28;20041;-75
2022/01/25 07:50:28;;;;;;;20.35;15.85;;;;;;;;;;5052809;28;20106;-76
2022/01/25 07:52:55;;;;;;;23.13;15.40;;;;;;;;;;5033828;28;20099;-75
2022/01/25 07:55:23;;;;;;;18.83;14.52;;;;;;;;;;5047432;28;20106;-75
2022/01/25 07:57:50;;;;;;;19.23;14.70;;;;;;;;;;5052304;28;20045;-75
2022/01/25 08:00:18;;;;;;;24.77;17.35;;;;;;;;;;5048577;28;20111;-74
2022/01/25 08:02:46;;;;;;;23.42;16.83;;;;;;;;;;5053469;28;20041;-75
2022/01/25 08:05:24;;;;;;;20.80;16.83;;;;;;;;;;5035780;28;20040;-75
2022/01/25 08:08:14;;;;;;;20.23;16.13;;;;;;;;;;5040520;28;20045;-77
2022/01/25 08:10:46;;;;;;;20.60;15.38;;;;;;;;;;5053940;28;20111;-74
2022/01/25 08:13:17;;;;;;;19.45;15.02;;;;;;;;;;5048345;28;20059;-75
2022/01/25 08:16:08;;;;;;;19.00;14.30;;;;;;;;;;5033346;28;20056;-75
2022/01/25 08:18:52;;;;;;;19.38;14.02;;;;;;;;;;5037795;28;20540;-76
2022/01/25 08:21:25;;;;;;;20.95;15.55;;;;;;;;;;5053631;28;20037;-76
2022/01/25 08:24:09;;;;;;;22.77;16.88;;;;;;;;;;4973336;28;20051;-76
2022/01/25 08:26:47;;;;;;;24.63;15.07;;;;;;;;;;4974299;28;20089;-74
2022/01/25 08:29:54;;;;;;;21.13;15.27;;;;;;;;;;4904610;29;20049;-74
2022/01/25 08:32:44;;;;;;;25.33;16.83;;;;;;;;;;4867416;29;20054;-75
2022/01/25 08:35:16;;;;;;;25.35;16.63;;;;;;;;;;4873128;29;20095;-75
2022/01/25 08:37:57;;;;;;;24.63;16.65;;;;;;;;;;4897431;29;20116;-75
2022/01/25 08:40:26;;;;;;;24.23;15.93;;;;;;;;;;4909806;29;20135;-73
2022/01/25 08:42:53;;;;;;;23.42;15.70;;;;;;;;;;4913899;29;20044;-74
2022/01/25 08:45:29;;;;;;;25.77;17.67;;;;;;;;;;4875755;29;20473;-74
2022/01/25 08:48:02;;;;;;;25.13;16.75;;;;;;;;;;4925872;28;20503;-74
2022/01/25 08:50:46;;;;;;;30.33;19.40;;;;;;;;;;4981943;28;20043;-75
2022/01/25 08:53:40;;;;;;;25.35;16.65;;;;;;;;;;5036820;28;20057;-73
2022/01/25 08:56:28;;;;;;;23.65;16.02;;;;;;;;;;5044852;28;20049;-74
2022/01/25 08:59:10;;;;;;;30.30;19.27;;;;;;;;;;4988739;28;20057;-75
2022/01/25 09:01:38;;;;;;;26.40;17.60;;;;;;;;;;4986329;28;20057;-75
2022/01/25 09:04:06;;;;;;;23.70;16.65;;;;;;;;;;4955091;28;20137;-76
2022/01/25 09:06:34;;;;;;;23.45;16.23;;;;;;;;;;4980561;28;20054;-75
2022/01/25 09:09:03;;;;;;;24.08;14.98;;;;;;;;;;4984936;28;20518;-76
2022/01/25 09:11:31;;;;;;;27.80;18.27;;;;;;;;;;4979278;28;20042;-74
2022/01/25 09:13:58;;;;;;;31.60;19.75;;;;;;;;;;4973364;28;20058;-74
2022/01/25 09:16:27;;;;;;;36.85;22.13;;;;;;;;;;4963970;28;20050;-74
2022/01/25 09:18:54;;;;;;;29.13;19.50;;;;;;;;;;4987410;28;20087;-74
2022/01/25 09:21:22;;;;;;;28.42;18.05;;;;;;;;;;4989127;28;21663;-74
2022/01/25 09:23:49;;;;;;;29.15;18.75;;;;;;;;;;4987563;28;20073;-75
2022/01/25 09:26:17;;;;;;;29.25;18.55;;;;;;;;;;4970703;28;20180;-76
2022/01/25 09:28:44;;;;;;;27.27;18.73;;;;;;;;;;4969404;28;20120;-75
2022/01/25 09:31:12;;;;;;;36.22;22.20;;;;;;;;;;4987038;28;20094;-75
2022/01/25 09:33:39;;;;;;;34.67;22.10;;;;;;;;;;4985186;28;20057;-75
2022/01/25 09:36:07;;;;;;;27.98;18.90;;;;;;;;;;5004557;28;20053;-75
2022/01/25 09:38:36;;;;;;;32.90;21.35;;;;;;;;;;5043411;28;20051;-75
2022/01/25 09:41:03;;;;;;;35.38;22.75;;;;;;;;;;5044023;28;20035;-75
2022/01/25 09:43:31;;;;;;;32.42;21.55;;;;;;;;;;5049749;28;20071;-75
2022/01/25 09:45:59;;;;;;;35.38;20.48;;;;;;;;;;5024937;28;20413;-75
2022/01/25 09:48:26;;;;;;;34.92;21.13;;;;;;;;;;5045055;28;20500;-75
2022/01/25 09:50:56;;;;;;;36.80;21.08;;;;;;;;;;5029248;28;20045;-75
2022/01/25 09:53:25;;;;;;;31.90;20.08;;;;;;;;;;5055389;28;20131;-75
2022/01/25 09:55:53;;;;;;;30.45;17.50;;;;;;;;;;5044622;28;20461;-74
2022/01/25 09:58:20;;;;;;;37.78;21.85;;;;;;;;;;5046698;28;20132;-75
2022/01/25 10:00:55;;;;;;;34.88;19.95;;;;;;;;;;5045025;28;20083;-74
2022/01/25 10:03:29;;;;;;;35.28;21.27;;;;;;;;;;5033042;28;20041;-75
2022/01/25 10:06:00;;;;;;;40.00;22.98;;;;;;;;;;5011989;28;20076;-74
2022/01/25 10:08:30;;;;;;;28.90;18.17;;;;;;;;;;5019725;28;20493;-74
2022/01/25 10:11:19;;;;;;;35.90;21.02;;;;;;;;;;5019236;28;20515;-75
2022/01/25 10:13:51;;;;;;;31.83;20.02;;;;;;;;;;5035003;28;20079;-75
2022/01/25 10:16:20;;;;;;;28.52;18.35;;;;;;;;;;5031466;28;20060;-74
2022/01/25 10:18:48;;;;;;;28.20;19.05;;;;;;;;;;5043064;28;20120;-74
2022/01/25 10:21:17;;;;;;;29.92;20.65;;;;;;;;;;5008536;28;20038;-75
2022/01/25 10:24:01;;;;;;;37.67;21.70;;;;;;;;;;5039874;28;20068;-74
2022/01/25 10:26:39;;;;;;;34.13;20.45;;;;;;;;;;5047621;28;20044;-74
2022/01/25 10:29:12;;;;;;;31.05;20.17;;;;;;;;;;5054530;28;20048;-75
2022/01/25 10:31:41;;;;;;;34.53;22.33;;;;;;;;;;5050170;28;20045;-74
2022/01/25 10:34:10;;;;;;;33.40;21.67;;;;;;;;;;5046230;28;20460;-76
2022/01/25 10:36:48;;;;;;;27.88;18.33;;;;;;;;;;5043949;28;20045;-74
2022/01/25 10:39:20;;;;;;;33.10;19.77;;;;;;;;;;5042707;28;20037;-75
2022/01/25 10:41:48;;;;;;;29.45;18.30;;;;;;;;;;5045628;28;20067;-74
2022/01/25 10:44:15;;;;;;;24.80;13.73;;;;;;;;;;5051377;28;20119;-73
2022/01/25 10:46:44;;;;;;;25.75;17.33;;;;;;;;;;5047813;28;20135;-75
2022/01/25 10:49:13;;;;;;;26.80;18.58;;;;;;;;;;5038981;28;20389;-74
2022/01/25 10:51:45;;;;;;;32.00;20.45;;;;;;;;;;5028658;28;20041;-75
2022/01/25 10:54:14;;;;;;;29.17;19.08;;;;;;;;;;5048648;28;20496;-75
2022/01/25 10:56:49;;;;;;;24.73;16.60;;;;;;;;;;5049481;28;20094;-75
2022/01/25 10:59:21;;;;;;;30.40;20.20;;;;;;;;;;5049379;28;20079;-75
2022/01/25 11:01:53;;;;;;;23.63;15.82;;;;;;;;;;5048584;28;20049;-74
2022/01/25 11:04:23;;;;;;;28.38;17.52;;;;;;;;;;5031109;28;20084;-74
2022/01/25 11:06:59;;;;;;;23.77;16.05;;;;;;;;;;5049547;28;20041;-73
2022/01/25 11:09:27;;;;;;;30.45;18.65;;;;;;;;;;5042111;28;20531;-75
2022/01/25 11:11:57;;;;;;;33.08;21.27;;;;;;;;;;5025192;28;20092;-76
2022/01/25 11:17:10;;;;;;;35.80;20.83;;;;;;;;;;5027754;28;20045;-74
2022/01/25 11:19:38;;;;;;;29.58;20.13;;;;;;;;;;5043183;28;20052;-75
2022/01/25 11:22:06;;;;;;;31.88;20.02;;;;;;;;;;5043404;28;20076;-75
2022/01/25 11:24:34;;;;;;;36.05;25.58;;;;;;;;;;5050070;28;20092;-74
2022/01/25 11:27:03;;;;;;;34.60;22.10;;;;;;;;;;5026516;28;20029;-74
2022/01/25 11:29:33;;;;;;;32.47;20.30;;;;;;;;;;5028944;28;20718;-74
2022/01/25 11:32:06;;;;;;;27.15;17.35;;;;;;;;;;5046832;28;20061;-74
2022/01/25 11:34:34;;;;;;;27.50;17.40;;;;;;;;;;5029731;28;20048;-74
2022/01/25 11:37:10;;;;;;;27.73;18.20;;;;;;;;;;5030404;28;20425;-75
2022/01/25 11:39:43;;;;;;;26.50;17.20;;;;;;;;;;5050067;28;20045;-74
2022/01/25 11:42:17;;;;;;;36.53;21.90;;;;;;;;;;5044480;28;20037;-74
2022/01/25 11:44:47;;;;;;;29.65;18.48;;;;;;;;;;5045953;28;20037;-75
2022/01/25 11:47:16;;;;;;;33.92;21.02;;;;;;;;;;5030070;28;20061;-75
2022/01/25 11:49:54;;;;;;;37.28;22.05;;;;;;;;;;5032114;28;20516;-74
2022/01/25 11:52:24;;;;;;;28.02;17.75;;;;;;;;;;5032337;28;20106;-75
2022/01/25 11:54:53;;;;;;;34.72;21.25;;;;;;;;;;5050513;28;20033;-75
2022/01/25 11:57:25;;;;;;;32.08;19.60;;;;;;;;;;5027454;28;20096;-75
2022/01/25 11:59:52;;;;;;;;;;;;;;;;;;5037809;28;20128;-75
2022/01/25 12:02:38;;;;;;;23.58;14.75;;;;;;;;;;5049653;28;20379;-75
2022/01/25 12:05:07;;;;;;;27.80;17.05;;;;;;;;;;5049408;28;20082;-75
2022/01/25 12:07:41;;;;;;;34.15;19.77;;;;;;;;;;5048196;28;20493;-75
2022/01/25 12:10:27;;;;;;;35.05;20.75;;;;;;;;;;5045615;28;20773;-75
2022/01/25 12:13:11;;;;;;;29.35;17.65;;;;;;;;;;5048537;28;20045;-75
2022/01/25 12:15:38;;;;;;;22.73;15.70;;;;;;;;;;5028255;28;20045;-75
2022/01/25 12:18:09;;;;;;;29.30;18.98;;;;;;;;;;5032712;28;20045;-74
2022/01/25 12:20:47;;;;;;;21.30;14.07;;;;;;;;;;5045523;28;20112;-75
2022/01/25 12:23:19;;;;;;;27.55;18.15;;;;;;;;;;5043538;28;20087;-75
2022/01/25 12:25:51;;;;;;;36.10;19.23;;;;;;;;;;5029417;28;20033;-76
2022/01/25 12:28:44;;;;;;;27.58;18.15;;;;;;;;;;5030622;28;20119;-76
2022/01/25 12:31:18;;;;;;;26.70;18.13;;;;;;;;;;5043651;28;20044;-75
2022/01/25 12:33:46;;;;;;;33.35;19.60;;;;;;;;;;5048490;28;20419;-75
2022/01/25 12:36:14;;;;;;;28.70;18.58;;;;;;;;;;5047195;28;20068;-77
2022/01/25 12:38:44;;;;;;;30.65;19.30;;;;;;;;;;5041150;28;20049;-75
2022/01/25 12:41:20;;;;;;;29.92;19.38;;;;;;;;;;5030784;28;20056;-76
2022/01/25 12:43:51;;;;;;;33.03;18.88;;;;;;;;;;5039590;28;20588;-75
2022/01/25 12:46:20;;;;;;;29.90;19.35;;;;;;;;;;5026074;28;20075;-74
2022/01/25 12:48:49;;;;;;;30.95;19.60;;;;;;;;;;5044682;28;20052;-74
2022/01/25 12:51:23;;;;;;;27.85;18.00;;;;;;;;;;5041405;28;20127;-74
2022/01/25 12:53:53;;;;;;;24.75;16.92;;;;;;;;;;5028349;28;20527;-74
2022/01/25 12:56:24;;;;;;;29.98;19.30;;;;;;;;;;5046510;28;20040;-75
2022/01/25 12:58:55;;;;;;;27.42;18.80;;;;;;;;;;5041779;28;20478;-75
2022/01/25 13:01:24;;;;;;;30.38;20.13;;;;;;;;;;5041614;28;20162;-75
2022/01/25 13:03:53;;;;;;;33.63;18.92;;;;;;;;;;5044948;28;20032;-75
2022/01/25 13:06:23;;;;;;;28.50;18.85;;;;;;;;;;5005694;28;20041;-75
2022/01/25 13:08:57;;;;;;;30.05;19.02;;;;;;;;;;5047321;28;20029;-74
2022/01/25 13:11:29;;;;;;;32.70;20.25;;;;;;;;;;5039650;28;20040;-74
2022/01/25 13:16:44;;;;;;;30.88;19.23;;;;;;;;;;5042025;28;20033;-74
2022/01/25 13:19:15;;;;;;;21.25;14.95;;;;;;;;;;5029819;28;20110;-74
2022/01/25 13:21:49;;;;;;;30.80;19.77;;;;;;;;;;5039554;28;20088;-75
2022/01/25 13:24:36;;;;;;;30.45;19.75;;;;;;;;;;5043073;28;20037;-74
2022/01/25 13:27:08;;;;;;;25.05;16.67;;;;;;;;;;5028126;28;20045;-74
2022/01/25 13:32:25;;;;;;;27.05;17.77;;;;;;;;;;5043848;28;20449;-74
2022/01/25 13:35:17;;;;;;;28.08;17.60;;;;;;;;;;5044682;28;20522;-75
2022/01/25 13:37:45;;;;;;;27.38;17.30;;;;;;;;;;5046923;28;20067;-74
2022/01/25 13:40:14;;;;;;;32.28;18.00;;;;;;;;;;5048185;28;20441;-76
2022/01/25 13:42:57;;;;;;;30.45;16.65;;;;;;;;;;5042676;28;20485;-76
2022/01/25 13:45:44;;;;;;;30.25;19.42;;;;;;;;;;5048330;28;20037;-75
2022/01/25 13:48:15;;;;;;;30.73;19.20;;;;;;;;;;5028198;28;20108;-76
2022/01/25 13:50:43;;;;;;;29.33;17.38;;;;;;;;;;5039715;28;20439;-76
2022/01/25 13:53:10;;;;;;;28.05;16.65;;;;;;;;;;5049914;28;20371;-75
2022/01/25 13:55:38;;;;;;;25.30;15.13;;;;;;;;;;5046528;28;20037;-74
2022/01/25 13:58:18;;;;;;;23.88;13.65;;;;;;;;;;5045872;28;20061;-74
2022/01/25 14:00:46;;;;;;;21.98;12.23;;;;;;;;;;5043306;28;20440;-75
2022/01/25 14:03:15;;;;;;;18.85;12.23;;;;;;;;;;5029517;28;20096;-74
2022/01/25 14:05:43;;;;;;;15.57;10.27;;;;;;;;;;5038842;28;20493;-74
2022/01/25 14:08:10;;;;;;;18.05;11.38;;;;;;;;;;5038379;28;20088;-74
2022/01/25 14:10:43;;;;;;;17.52;10.43;;;;;;;;;;5041492;28;20037;-74
2022/01/25 14:21:56;;;;;;;21.17;12.13;;;;;;;;;;5044949;28;20076;-75
2022/01/25 14:24:32;;;;;;;21.98;14.20;;;;;;;;;;5039392;28;20064;-75
2022/01/25 14:27:17;;;;;;;18.77;12.73;;;;;;;;;;5042906;28;20104;-74
2022/01/25 14:29:44;;;;;;;20.45;13.95;;;;;;;;;;5041884;28;20555;-74
2022/01/25 14:32:11;;;;;;;22.30;11.95;;;;;;;;;;5044060;28;20037;-74
2022/01/25 14:34:40;;;;;;;17.88;12.15;;;;;;;;;;5042164;28;20091;-75
2022/01/25 14:37:12;;;;;;;16.13;9.93;;;;;;;;;;5044626;28;21526;-75
2022/01/25 14:39:41;;;;;;;;;;;;;;;;;;5041317;28;20056;-75
2022/01/25 14:42:10;;;;;;;17.13;10.70;;;;;;;;;;5041222;28;19989;-74
2022/01/25 14:44:43;;;;;;;20.75;12.68;;;;;;;;;;5024002;28;20124;-74
2022/01/25 14:47:13;;;;;;;20.63;11.98;;;;;;;;;;5040396;28;20049;-75
2022/01/25 14:49:47;;;;;;;25.55;14.13;;;;;;;;;;5023082;28;20036;-75
2022/01/25 14:52:19;;;;;;;25.52;13.82;;;;;;;;;;5022336;28;20148;-75
2022/01/25 14:54:47;;;;;;;23.50;14.60;;;;;;;;;;5034840;28;21268;-74
2022/01/25 14:57:19;;;;;;;33.33;13.55;;;;;;;;;;5011165;28;20144;-76
2022/01/25 14:59:47;;;;;;;19.23;12.93;;;;;;;;;;5025943;28;20742;-75
2022/01/25 15:02:17;;;;;;;22.02;13.55;;;;;;;;;;5033780;28;20346;-75
2022/01/25 15:04:47;;;;;;;20.92;13.15;;;;;;;;;;5012719;28;20056;-75
2022/01/25 15:07:16;;;;;;;19.70;11.18;;;;;;;;;;5029365;28;20044;-74
2022/01/25 15:09:59;;;;;;;24.60;14.82;;;;;;;;;;5030181;28;20461;-75
2022/01/25 15:12:41;;;;;;;24.33;14.80;;;;;;;;;;5014465;28;20689;-75
2022/01/25 15:15:15;;;;;;;22.27;13.93;;;;;;;;;;5033064;28;20825;-75
2022/01/25 15:17:42;;;;;;;25.10;14.98;;;;;;;;;;5014105;28;20045;-74
2022/01/25 15:20:12;;;;;;;17.90;12.30;;;;;;;;;;5012253;28;20045;-75
2022/01/25 15:22:44;;;;;;;21.83;14.48;;;;;;;;;;5034824;28;20911;-76
2022/01/25 15:25:14;;;;;;;24.55;16.52;;;;;;;;;;5034883;28;20045;-75
2022/01/25 15:27:41;;;;;;;21.88;15.07;;;;;;;;;;5032480;28;20064;-76
2022/01/25 15:30:09;;;;;;;22.35;14.43;;;;;;;;;;4999764;28;20053;-74
2022/01/25 15:32:37;;;;;;;21.38;14.50;;;;;;;;;;5015157;28;20405;-76
2022/01/25 15:35:05;;;;;;;20.65;13.10;;;;;;;;;;4971920;28;20050;-75
2022/01/25 15:37:33;;;;;;;20.20;12.73;;;;;;;;;;4972955;28;20418;-74
2022/01/25 15:40:00;;;;;;;22.27;13.27;;;;;;;;;;4970603;28;21031;-75
2022/01/25 15:42:30;;;;;;;25.75;15.90;;;;;;;;;;4969090;28;20154;-75
2022/01/25 15:45:10;;;;;;;23.80;13.13;;;;;;;;;;4956984;28;20054;-74
2022/01/25 15:47:37;;;;;;;19.00;13.80;;;;;;;;;;4972572;28;20074;-75
2022/01/25 15:50:06;;;;;;;23.40;14.63;;;;;;;;;;4971536;28;20428;-75
2022/01/25 15:52:33;;;;;;;19.27;12.20;;;;;;;;;;4942717;28;20323;-74
2022/01/25 15:55:00;;;;;;;26.17;15.63;;;;;;;;;;4957308;28;20046;-75
2022/01/25 15:57:28;;;;;;;25.95;17.10;;;;;;;;;;4947691;28;20077;-75
2022/01/25 15:59:56;;;;;;;20.55;13.65;;;;;;;;;;4954829;28;20627;-75
2022/01/25 16:02:24;;;;;;;22.33;14.27;;;;;;;;;;4953885;28;20145;-75
2022/01/25 16:04:52;;;;;;;26.42;15.95;;;;;;;;;;4971075;28;20370;-75
2022/01/25 16:07:24;;;;;;;25.05;15.73;;;;;;;;;;4970927;28;20124;-75
2022/01/25 16:09:56;;;;;;;22.45;14.35;;;;;;;;;;4971140;28;20042;-75
2022/01/25 16:12:27;;;;;;;19.48;12.10;;;;;;;;;;4981810;28;20579;-74
2022/01/25 16:14:55;;;;;;;21.40;13.10;;;;;;;;;;5033755;28;20413;-74
2022/01/25 16:17:22;;;;;;;25.45;12.88;;;;;;;;;;5027330;28;20140;-75
2022/01/25 16:19:50;;;;;;;23.02;15.25;;;;;;;;;;5027754;28;20053;-75
2022/01/25 16:22:17;;;;;;;29.80;16.50;;;;;;;;;;5031545;28;20044;-75
2022/01/25 16:24:45;;;;;;;25.35;15.10;;;;;;;;;;5013849;28;20071;-75
2022/01/25 16:27:12;;;;;;;29.42;17.17;;;;;;;;;;5022558;28;20045;-75
2022/01/25 16:29:40;;;;;;;23.17;11.40;;;;;;;;;;5017137;28;20041;-74
2022/01/25 16:32:08;;;;;;;21.08;13.07;;;;;;;;;;5030004;28;20048;-75
2022/01/25 16:34:37;;;;;;;27.30;14.73;;;;;;;;;;5033809;28;20076;-74
2022/01/25 16:37:05;;;;;;;21.08;12.75;;;;;;;;;;5013561;28;20194;-74
2022/01/25 16:39:33;;;;;;;24.52;14.75;;;;;;;;;;5029030;28;20044;-75
2022/01/25 16:42:03;;;;;;;29.33;17.17;;;;;;;;;;5012166;28;20439;-74
2022/01/25 16:44:53;;;;;;;22.65;13.15;;;;;;;;;;5032094;28;20037;-75
2022/01/25 16:47:20;;;;;;;25.95;14.20;;;;;;;;;;5028731;28;20072;-74